Kellyville, Oklahoma
Current Conditions -  °F | °C
As of 9:53 AM on Thursday 27 Nov 2014 (Local Time) from KRVS Reporting Station
Clear Clear  
Wind Chill: 31°   Ceiling: Unl
Heat Index: 35°   Visibility: 10mi
Dew Point: 23°   Wind: 5mph
Humidity: 61%   Direction: NA
Pressure: 30.59"   Gusts: NA
Location:  35.94°N, 96.21°W
Report Text: KRVS 271553Z VRB04KT 10SM CLR 02/M05 A3059 RMK AO2 SLP367 T00171050
Loading
Personal Weather Stations






























Interactive Weather Map New forecast layout! Learn more

10-Day Weather Forecast

Advertisements
Track Severe Weather on mobile